sensor_id;sensor_type;location;lat;lon;timestamp;pressure;altitude;pressure_sealevel;temperature;humidity
28312;BME280;15572;48.810;9.148;2023-11-19T00:02:01;98040.78;;;7.67;100.00
28312;BME280;15572;48.810;9.148;2023-11-19T00:06:57;98047.47;;;7.71;100.00
28312;BME280;15572;48.810;9.148;2023-11-19T00:11:58;98019.63;;;7.78;100.00
28312;BME280;15572;48.810;9.148;2023-11-19T00:16:55;98014.53;;;7.83;100.00
28312;BME280;15572;48.810;9.148;2023-11-19T00:21:53;98006.00;;;7.94;100.00
28312;BME280;15572;48.810;9.148;2023-11-19T00:26:50;98001.91;;;7.98;100.00
28312;BME280;15572;48.810;9.148;2023-11-19T00:31:46;98000.50;;;8.02;100.00
28312;BME280;15572;48.810;9.148;2023-11-19T00:36:42;97992.97;;;8.13;100.00
28312;BME280;15572;48.810;9.148;2023-11-19T00:41:41;97970.56;;;8.27;100.00
28312;BME280;15572;48.810;9.148;2023-11-19T00:46:37;97982.44;;;8.62;100.00
28312;BME280;15572;48.810;9.148;2023-11-19T00:51:34;97981.97;;;8.73;100.00
28312;BME280;15572;48.810;9.148;2023-11-19T00:56:30;97959.22;;;8.82;100.00
28312;BME280;15572;48.810;9.148;2023-11-19T01:01:28;97960.31;;;8.87;100.00
28312;BME280;15572;48.810;9.148;2023-11-19T01:06:28;97962.44;;;8.92;100.00
28312;BME280;15572;48.810;9.148;2023-11-19T01:11:25;97963.28;;;8.93;100.00
28312;BME280;15572;48.810;9.148;2023-11-19T01:16:21;97961.50;;;9.00;100.00
28312;BME280;15572;48.810;9.148;2023-11-19T01:21:19;97961.56;;;9.06;100.00
28312;BME280;15572;48.810;9.148;2023-11-19T01:26:17;97957.00;;;9.07;100.00
28312;BME280;15572;48.810;9.148;2023-11-19T01:31:14;97944.72;;;9.04;100.00
28312;BME280;15572;48.810;9.148;2023-11-19T01:36:13;97950.50;;;9.01;100.00
28312;BME280;15572;48.810;9.148;2023-11-19T01:41:11;97944.44;;;8.99;100.00
28312;BME280;15572;48.810;9.148;2023-11-19T01:46:08;97937.59;;;8.97;100.00
28312;BME280;15572;48.810;9.148;2023-11-19T01:51:07;97944.72;;;9.04;100.00
28312;BME280;15572;48.810;9.148;2023-11-19T01:56:05;97945.81;;;9.10;100.00
28312;BME280;15572;48.810;9.148;2023-11-19T02:01:06;97936.69;;;9.11;100.00
28312;BME280;15572;48.810;9.148;2023-11-19T02:06:03;97943.25;;;9.23;100.00
28312;BME280;15572;48.810;9.148;2023-11-19T02:10:59;97934.16;;;9.30;100.00
28312;BME280;15572;48.810;9.148;2023-11-19T02:15:56;97931.91;;;9.34;100.00
28312;BME280;15572;48.810;9.148;2023-11-19T02:20:54;97928.22;;;9.42;100.00
28312;BME280;15572;48.810;9.148;2023-11-19T02:25:59;97918.84;;;9.38;100.00
28312;BME280;15572;48.810;9.148;2023-11-19T02:30:59;97920.88;;;9.36;100.00
28312;BME280;15572;48.810;9.148;2023-11-19T02:35:55;97912.16;;;9.34;100.00
28312;BME280;15572;48.810;9.148;2023-11-19T02:40:52;97923.59;;;9.36;100.00
28312;BME280;15572;48.810;9.148;2023-11-19T02:45:48;97921.53;;;9.38;100.00
28312;BME280;15572;48.810;9.148;2023-11-19T02:50:48;97932.34;;;9.38;100.00
28312;BME280;15572;48.810;9.148;2023-11-19T02:55:44;97925.38;;;9.50;100.00
28312;BME280;15572;48.810;9.148;2023-11-19T03:00:45;97916.09;;;9.59;100.00
28312;BME280;15572;48.810;9.148;2023-11-19T03:05:48;97921.94;;;9.62;100.00
28312;BME280;15572;48.810;9.148;2023-11-19T03:10:45;97921.59;;;9.72;100.00
28312;BME280;15572;48.810;9.148;2023-11-19T03:15:41;97931.38;;;9.73;100.00
28312;BME280;15572;48.810;9.148;2023-11-19T03:20:38;97933.28;;;9.79;100.00
28312;BME280;15572;48.810;9.148;2023-11-19T03:25:36;97926.44;;;9.83;100.00
28312;BME280;15572;48.810;9.148;2023-11-19T03:30:32;97934.75;;;9.82;100.00
28312;BME280;15572;48.810;9.148;2023-11-19T03:35:29;97921.44;;;9.80;100.00
28312;BME280;15572;48.810;9.148;2023-11-19T03:40:26;97913.81;;;9.90;100.00
28312;BME280;15572;48.810;9.148;2023-11-19T03:45:23;97913.63;;;9.92;100.00
28312;BME280;15572;48.810;9.148;2023-11-19T03:50:20;97913.41;;;9.93;100.00
28312;BME280;15572;48.810;9.148;2023-11-19T03:55:17;97898.50;;;10.04;100.00
28312;BME280;15572;48.810;9.148;2023-11-19T04:00:14;97885.81;;;10.11;100.00
28312;BME280;15572;48.810;9.148;2023-11-19T04:05:12;97873.03;;;10.20;100.00
28312;BME280;15572;48.810;9.148;2023-11-19T04:10:09;97869.69;;;10.24;100.00
28312;BME280;15572;48.810;9.148;2023-11-19T04:15:06;97879.72;;;10.30;100.00
28312;BME280;15572;48.810;9.148;2023-11-19T04:20:05;97882.22;;;10.38;100.00
28312;BME280;15572;48.810;9.148;2023-11-19T04:25:08;97884.56;;;10.48;100.00
28312;BME280;15572;48.810;9.148;2023-11-19T04:30:06;97887.91;;;10.50;100.00
28312;BME280;15572;48.810;9.148;2023-11-19T04:35:06;97874.38;;;10.50;100.00
28312;BME280;15572;48.810;9.148;2023-11-19T04:40:03;97886.63;;;10.52;100.00
28312;BME280;15572;48.810;9.148;2023-11-19T04:45:01;97880.00;;;10.55;100.00
28312;BME280;15572;48.810;9.148;2023-11-19T04:49:57;97888.16;;;10.62;100.00
28312;BME280;15572;48.810;9.148;2023-11-19T04:54:54;97889.00;;;10.62;100.00
28312;BME280;15572;48.810;9.148;2023-11-19T04:59:50;97896.03;;;10.63;100.00
28312;BME280;15572;48.810;9.148;2023-11-19T05:04:48;97888.97;;;10.69;100.00
28312;BME280;15572;48.810;9.148;2023-11-19T05:09:44;97885.47;;;10.68;100.00
28312;BME280;15572;48.810;9.148;2023-11-19T05:14:41;97878.59;;;10.72;100.00
28312;BME280;15572;48.810;9.148;2023-11-19T05:19:43;97889.44;;;10.72;100.00
28312;BME280;15572;48.810;9.148;2023-11-19T05:24:41;97887.13;;;10.76;100.00
28312;BME280;15572;48.810;9.148;2023-11-19T05:29:37;97889.84;;;10.76;100.00
28312;BME280;15572;48.810;9.148;2023-11-19T05:34:34;97899.03;;;10.81;100.00
28312;BME280;15572;48.810;9.148;2023-11-19T05:39:31;97909.88;;;10.88;100.00
28312;BME280;15572;48.810;9.148;2023-11-19T05:44:29;97888.81;;;10.90;100.00
28312;BME280;15572;48.810;9.148;2023-11-19T05:49:25;97885.50;;;11.01;100.00
28312;BME280;15572;48.810;9.148;2023-11-19T05:54:22;97878.44;;;11.07;100.00
28312;BME280;15572;48.810;9.148;2023-11-19T05:59:18;97866.56;;;11.08;100.00
28312;BME280;15572;48.810;9.148;2023-11-19T06:04:16;97876.34;;;11.02;100.00
28312;BME280;15572;48.810;9.148;2023-11-19T06:09:12;97875.50;;;11.02;100.00
28312;BME280;15572;48.810;9.148;2023-11-19T06:14:09;97889.69;;;11.04;100.00
28312;BME280;15572;48.810;9.148;2023-11-19T06:19:06;97892.81;;;11.07;100.00
28312;BME280;15572;48.810;9.148;2023-11-19T06:24:05;97918.66;;;11.10;100.00
28312;BME280;15572;48.810;9.148;2023-11-19T06:29:01;97914.50;;;11.14;100.00
28312;BME280;15572;48.810;9.148;2023-11-19T06:33:58;97916.56;;;11.18;100.00
28312;BME280;15572;48.810;9.148;2023-11-19T06:38:54;97912.84;;;11.19;100.00
28312;BME280;15572;48.810;9.148;2023-11-19T06:43:52;97922.00;;;11.18;100.00
28312;BME280;15572;48.810;9.148;2023-11-19T06:48:49;97916.78;;;11.17;100.00
28312;BME280;15572;48.810;9.148;2023-11-19T06:53:45;97924.09;;;11.16;100.00
28312;BME280;15572;48.810;9.148;2023-11-19T06:58:41;97928.44;;;11.17;100.00
28312;BME280;15572;48.810;9.148;2023-11-19T07:03:39;97928.44;;;11.17;100.00
28312;BME280;15572;48.810;9.148;2023-11-19T07:08:35;97922.41;;;11.15;100.00
28312;BME280;15572;48.810;9.148;2023-11-19T07:13:33;97921.78;;;11.13;100.00
28312;BME280;15572;48.810;9.148;2023-11-19T07:18:30;97925.97;;;11.16;100.00
28312;BME280;15572;48.810;9.148;2023-11-19T07:23:28;97915.97;;;11.16;100.00
28312;BME280;15572;48.810;9.148;2023-11-19T07:28:24;97917.41;;;11.19;100.00
28312;BME280;15572;48.810;9.148;2023-11-19T07:33:21;97935.34;;;11.26;100.00
28312;BME280;15572;48.810;9.148;2023-11-19T07:38:17;97947.25;;;11.32;100.00
28312;BME280;15572;48.810;9.148;2023-11-19T07:43:15;97949.09;;;11.38;100.00
28312;BME280;15572;48.810;9.148;2023-11-19T07:48:11;97955.59;;;11.50;100.00
28312;BME280;15572;48.810;9.148;2023-11-19T07:53:09;97947.25;;;11.52;100.00
28312;BME280;15572;48.810;9.148;2023-11-19T07:58:05;97966.03;;;11.53;100.00
28312;BME280;15572;48.810;9.148;2023-11-19T08:03:03;97960.19;;;11.56;100.00
28312;BME280;15572;48.810;9.148;2023-11-19T08:07:59;97956.84;;;11.67;100.00
28312;BME280;15572;48.810;9.148;2023-11-19T08:12:57;97958.09;;;11.71;100.00
28312;BME280;15572;48.810;9.148;2023-11-19T08:17:53;97946.63;;;11.76;100.00
28312;BME280;15572;48.810;9.148;2023-11-19T08:22:51;97957.47;;;11.82;100.00
28312;BME280;15572;48.810;9.148;2023-11-19T08:27:48;97961.63;;;11.98;100.00
28312;BME280;15572;48.810;9.148;2023-11-19T08:32:44;97958.47;;;12.14;100.00
28312;BME280;15572;48.810;9.148;2023-11-19T08:37:40;97959.31;;;12.28;100.00
28312;BME280;15572;48.810;9.148;2023-11-19T08:42:38;97968.59;;;12.52;100.00
28312;BME280;15572;48.810;9.148;2023-11-19T08:47:35;97987.34;;;12.66;100.00
28312;BME280;15572;48.810;9.148;2023-11-19T08:52:31;97962.91;;;12.66;100.00
28312;BME280;15572;48.810;9.148;2023-11-19T08:57:28;97977.13;;;12.69;100.00
28312;BME280;15572;48.810;9.148;2023-11-19T09:02:26;97976.06;;;12.70;100.00
28312;BME280;15572;48.810;9.148;2023-11-19T09:07:22;97975.41;;;12.74;100.00
28312;BME280;15572;48.810;9.148;2023-11-19T09:12:19;97980.56;;;12.89;100.00
28312;BME280;15572;48.810;9.148;2023-11-19T09:17:16;97966.69;;;13.03;100.00
28312;BME280;15572;48.810;9.148;2023-11-19T09:22:14;97981.28;;;13.09;100.00
28312;BME280;15572;48.810;9.148;2023-11-19T09:27:11;97992.16;;;13.16;100.00
28312;BME280;15572;48.810;9.148;2023-11-19T09:32:07;98004.91;;;13.15;100.00
28312;BME280;15572;48.810;9.148;2023-11-19T09:37:04;98007.03;;;13.13;100.00
28312;BME280;15572;48.810;9.148;2023-11-19T09:42:03;98008.69;;;13.14;100.00
28312;BME280;15572;48.810;9.148;2023-11-19T09:46:59;97994.19;;;13.27;100.00
28312;BME280;15572;48.810;9.148;2023-11-19T09:51:56;97991.34;;;13.46;100.00
28312;BME280;15572;48.810;9.148;2023-11-19T09:56:54;97991.09;;;13.55;100.00
28312;BME280;15572;48.810;9.148;2023-11-19T10:01:55;97997.72;;;13.65;100.00
28312;BME280;15572;48.810;9.148;2023-11-19T10:06:52;97987.16;;;13.75;100.00
28312;BME280;15572;48.810;9.148;2023-11-19T10:11:49;97990.78;;;13.94;100.00
28312;BME280;15572;48.810;9.148;2023-11-19T10:16:46;97994.69;;;14.05;100.00
28312;BME280;15572;48.810;9.148;2023-11-19T10:21:45;97985.31;;;14.19;100.00
28312;BME280;15572;48.810;9.148;2023-11-19T10:26:42;97982.69;;;14.30;100.00
28312;BME280;15572;48.810;9.148;2023-11-19T10:31:38;97969.81;;;14.62;100.00
28312;BME280;15572;48.810;9.148;2023-11-19T10:36:38;97986.66;;;14.89;100.00
28312;BME280;15572;48.810;9.148;2023-11-19T10:41:37;97982.22;;;15.06;100.00
28312;BME280;15572;48.810;9.148;2023-11-19T10:46:38;97979.00;;;15.28;99.46
28312;BME280;15572;48.810;9.148;2023-11-19T10:51:35;97978.19;;;15.27;97.13
28312;BME280;15572;48.810;9.148;2023-11-19T10:56:32;97977.97;;;15.40;94.41
28312;BME280;15572;48.810;9.148;2023-11-19T11:01:35;97969.69;;;15.47;95.73
28312;BME280;15572;48.810;9.148;2023-11-19T11:06:36;97981.44;;;15.47;90.94
28312;BME280;15572;48.810;9.148;2023-11-19T11:11:32;97970.16;;;15.44;86.21
28312;BME280;15572;48.810;9.148;2023-11-19T11:16:31;97970.63;;;15.41;86.56
28312;BME280;15572;48.810;9.148;2023-11-19T11:21:28;97956.59;;;15.26;88.30
28312;BME280;15572;48.810;9.148;2023-11-19T11:26:39;97972.81;;;15.21;91.08
28312;BME280;15572;48.810;9.148;2023-11-19T11:31:48;97958.00;;;15.16;92.08
28312;BME280;15572;48.810;9.148;2023-11-19T11:36:53;97952.81;;;15.27;88.16
28312;BME280;15572;48.810;9.148;2023-11-19T11:53:18;97936.50;;;15.08;90.33
28312;BME280;15572;48.810;9.148;2023-11-19T11:58:18;97928.03;;;14.98;92.52
28312;BME280;15572;48.810;9.148;2023-11-19T12:03:14;97932.78;;;15.33;88.55
28312;BME280;15572;48.810;9.148;2023-11-19T12:08:12;97934.84;;;15.49;87.93
28312;BME280;15572;48.810;9.148;2023-11-19T12:13:11;97929.41;;;15.61;86.45
28312;BME280;15572;48.810;9.148;2023-11-19T12:18:08;97923.41;;;15.70;85.18
28312;BME280;15572;48.810;9.148;2023-11-19T12:23:04;97922.44;;;15.88;81.03
28312;BME280;15572;48.810;9.148;2023-11-19T12:28:03;97910.97;;;15.86;76.31
28312;BME280;15572;48.810;9.148;2023-11-19T12:33:07;97891.84;;;15.74;72.92
28312;BME280;15572;48.810;9.148;2023-11-19T12:38:04;97878.78;;;15.88;72.15
28312;BME280;15572;48.810;9.148;2023-11-19T12:43:01;97882.00;;;15.96;68.26
28312;BME280;15572;48.810;9.148;2023-11-19T12:48:08;97879.28;;;15.96;68.99
28312;BME280;15572;48.810;9.148;2023-11-19T12:53:06;97864.19;;;15.94;69.15
28312;BME280;15572;48.810;9.148;2023-11-19T12:58:02;97863.34;;;15.82;69.08
28312;BME280;15572;48.810;9.148;2023-11-19T13:03:00;97870.03;;;15.86;69.81
28312;BME280;15572;48.810;9.148;2023-11-19T13:08:05;97866.69;;;15.72;69.72
28312;BME280;15572;48.810;9.148;2023-11-19T13:13:03;97886.75;;;16.01;68.40
28312;BME280;15572;48.810;9.148;2023-11-19T13:18:00;97879.28;;;15.85;69.08
28312;BME280;15572;48.810;9.148;2023-11-19T13:22:58;97879.97;;;15.92;69.14
28312;BME280;15572;48.810;9.148;2023-11-19T13:27:56;97880.69;;;16.11;68.43
28312;BME280;15572;48.810;9.148;2023-11-19T13:32:53;97865.50;;;15.80;69.01
28312;BME280;15572;48.810;9.148;2023-11-19T13:37:50;97853.88;;;15.73;70.23
28312;BME280;15572;48.810;9.148;2023-11-19T13:42:46;97861.94;;;15.79;69.84
28312;BME280;15572;48.810;9.148;2023-11-19T13:47:45;97851.38;;;15.94;69.93
28312;BME280;15572;48.810;9.148;2023-11-19T13:52:43;97843.56;;;15.86;69.49
28312;BME280;15572;48.810;9.148;2023-11-19T13:57:42;97864.69;;;15.91;67.67
28312;BME280;15572;48.810;9.148;2023-11-19T14:02:38;97854.81;;;15.78;62.01
28312;BME280;15572;48.810;9.148;2023-11-19T14:07:36;97846.03;;;15.53;59.83
28312;BME280;15572;48.810;9.148;2023-11-19T14:12:33;97843.16;;;15.48;58.55
28312;BME280;15572;48.810;9.148;2023-11-19T14:17:29;97848.59;;;15.36;59.88
28312;BME280;15572;48.810;9.148;2023-11-19T14:22:26;97852.38;;;15.24;59.47
28312;BME280;15572;48.810;9.148;2023-11-19T14:27:24;97851.75;;;15.10;60.94
28312;BME280;15572;48.810;9.148;2023-11-19T14:32:20;97844.50;;;15.04;61.89
28312;BME280;15572;48.810;9.148;2023-11-19T14:37:16;97833.91;;;14.84;64.28
28312;BME280;15572;48.810;9.148;2023-11-19T14:42:13;97833.94;;;14.66;66.19
28312;BME280;15572;48.810;9.148;2023-11-19T14:47:11;97825.88;;;14.59;67.66
28312;BME280;15572;48.810;9.148;2023-11-19T14:52:07;97834.38;;;14.51;68.68
28312;BME280;15572;48.810;9.148;2023-11-19T14:57:05;97827.47;;;14.49;67.98
28312;BME280;15572;48.810;9.148;2023-11-19T15:02:03;97816.00;;;14.47;69.33
28312;BME280;15572;48.810;9.148;2023-11-19T15:07:02;97821.53;;;14.40;69.07
28312;BME280;15572;48.810;9.148;2023-11-19T15:11:59;97832.88;;;14.37;69.72
28312;BME280;15572;48.810;9.148;2023-11-19T15:16:57;97843.13;;;14.35;68.06
28312;BME280;15572;48.810;9.148;2023-11-19T15:21:53;97841.88;;;14.19;68.35
28312;BME280;15572;48.810;9.148;2023-11-19T15:26:52;97851.31;;;14.17;68.16
28312;BME280;15572;48.810;9.148;2023-11-19T15:31:50;97846.78;;;14.11;69.10
28312;BME280;15572;48.810;9.148;2023-11-19T15:36:46;97848.81;;;13.97;70.57
28312;BME280;15572;48.810;9.148;2023-11-19T15:41:43;97843.28;;;13.85;71.56
28312;BME280;15572;48.810;9.148;2023-11-19T15:46:42;97843.97;;;13.81;71.89
28312;BME280;15572;48.810;9.148;2023-11-19T15:51:38;97843.28;;;13.67;73.31
28312;BME280;15572;48.810;9.148;2023-11-19T15:56:35;97843.50;;;13.66;74.22
28312;BME280;15572;48.810;9.148;2023-11-19T16:01:31;97844.25;;;13.55;76.15
28312;BME280;15572;48.810;9.148;2023-11-19T16:06:29;97834.78;;;13.39;77.93
28312;BME280;15572;48.810;9.148;2023-11-19T16:11:25;97837.16;;;13.29;79.35
28312;BME280;15572;48.810;9.148;2023-11-19T16:16:22;97841.75;;;13.28;79.63
28312;BME280;15572;48.810;9.148;2023-11-19T16:21:18;97841.19;;;13.20;80.42
28312;BME280;15572;48.810;9.148;2023-11-19T16:26:16;97856.28;;;13.16;81.18
28312;BME280;15572;48.810;9.148;2023-11-19T16:31:12;97865.25;;;13.16;81.74
28312;BME280;15572;48.810;9.148;2023-11-19T16:36:11;97851.31;;;13.13;82.50
28312;BME280;15572;48.810;9.148;2023-11-19T16:41:08;97852.16;;;13.06;83.20
28312;BME280;15572;48.810;9.148;2023-11-19T16:46:08;97863.50;;;12.97;84.81
28312;BME280;15572;48.810;9.148;2023-11-19T16:51:09;97871.00;;;13.01;85.07
28312;BME280;15572;48.810;9.148;2023-11-19T16:56:08;97870.63;;;12.98;85.05
28312;BME280;15572;48.810;9.148;2023-11-19T17:01:05;97876.28;;;12.90;85.88
28312;BME280;15572;48.810;9.148;2023-11-19T17:06:03;97868.59;;;12.87;85.50
28312;BME280;15572;48.810;9.148;2023-11-19T17:11:00;97877.38;;;12.82;85.80
28312;BME280;15572;48.810;9.148;2023-11-19T17:15:57;97879.88;;;12.84;86.03
28312;BME280;15572;48.810;9.148;2023-11-19T17:20:53;97890.94;;;12.82;86.56
28312;BME280;15572;48.810;9.148;2023-11-19T17:25:52;97901.69;;;12.71;87.73
28312;BME280;15572;48.810;9.148;2023-11-19T17:30:48;97904.84;;;12.61;88.54
28312;BME280;15572;48.810;9.148;2023-11-19T17:35:45;97885.25;;;12.59;88.90
28312;BME280;15572;48.810;9.148;2023-11-19T17:40:41;97874.75;;;12.69;86.96
28312;BME280;15572;48.810;9.148;2023-11-19T17:45:39;97873.53;;;12.65;86.86
28312;BME280;15572;48.810;9.148;2023-11-19T17:50:35;97872.84;;;12.76;84.37
28312;BME280;15572;48.810;9.148;2023-11-19T17:55:32;97879.50;;;12.80;82.86
28312;BME280;15572;48.810;9.148;2023-11-19T18:00:28;97884.94;;;12.80;81.83
28312;BME280;15572;48.810;9.148;2023-11-19T18:05:26;97879.91;;;12.77;81.77
28312;BME280;15572;48.810;9.148;2023-11-19T18:10:22;97875.66;;;12.88;78.63
28312;BME280;15572;48.810;9.148;2023-11-19T18:15:19;97886.13;;;12.91;78.51
28312;BME280;15572;48.810;9.148;2023-11-19T18:20:16;97900.28;;;12.93;78.00
28312;BME280;15572;48.810;9.148;2023-11-19T18:25:14;97884.94;;;12.80;79.46
28312;BME280;15572;48.810;9.148;2023-11-19T18:30:13;97902.28;;;12.73;80.66
28312;BME280;15572;48.810;9.148;2023-11-19T18:35:10;97905.84;;;12.73;81.42
28312;BME280;15572;48.810;9.148;2023-11-19T18:40:08;97914.66;;;12.69;82.42
28312;BME280;15572;48.810;9.148;2023-11-19T18:45:08;97915.72;;;12.61;83.28
28312;BME280;15572;48.810;9.148;2023-11-19T18:50:06;97902.00;;;12.49;84.72
28312;BME280;15572;48.810;9.148;2023-11-19T18:55:04;97910.59;;;12.40;86.24
28312;BME280;15572;48.810;9.148;2023-11-19T19:00:01;97922.72;;;12.37;87.24
28312;BME280;15572;48.810;9.148;2023-11-19T19:05:03;97929.56;;;12.46;87.84
28312;BME280;15572;48.810;9.148;2023-11-19T19:10:00;97937.50;;;12.48;89.06
28312;BME280;15572;48.810;9.148;2023-11-19T19:14:57;97956.53;;;12.35;93.04
28312;BME280;15572;48.810;9.148;2023-11-19T19:19:55;97958.28;;;12.22;100.00
28312;BME280;15572;48.810;9.148;2023-11-19T19:24:53;97941.84;;;11.91;100.00
28312;BME280;15572;48.810;9.148;2023-11-19T19:29:50;97940.38;;;11.75;100.00
28312;BME280;15572;48.810;9.148;2023-11-19T19:34:46;97955.38;;;11.65;100.00
28312;BME280;15572;48.810;9.148;2023-11-19T19:39:43;97963.09;;;11.48;100.00
28312;BME280;15572;48.810;9.148;2023-11-19T19:44:41;97970.59;;;11.26;100.00
28312;BME280;15572;48.810;9.148;2023-11-19T19:49:37;97978.69;;;11.13;100.00
28312;BME280;15572;48.810;9.148;2023-11-19T19:54:33;97980.75;;;11.05;100.00
28312;BME280;15572;48.810;9.148;2023-11-19T19:59:30;97982.78;;;10.89;100.00
28312;BME280;15572;48.810;9.148;2023-11-19T20:04:30;97977.50;;;10.75;100.00
28312;BME280;15572;48.810;9.148;2023-11-19T20:09:26;97970.88;;;10.77;100.00
28312;BME280;15572;48.810;9.148;2023-11-19T20:14:22;97977.31;;;10.76;100.00
28312;BME280;15572;48.810;9.148;2023-11-19T20:19:22;97985.88;;;10.73;100.00
28312;BME280;15572;48.810;9.148;2023-11-19T20:24:20;97973.31;;;10.66;100.00
28312;BME280;15572;48.810;9.148;2023-11-19T20:29:17;97970.81;;;10.58;100.00
28312;BME280;15572;48.810;9.148;2023-11-19T20:34:13;97965.34;;;10.51;100.00
28312;BME280;15572;48.810;9.148;2023-11-19T20:39:10;97974.72;;;10.55;100.00
28312;BME280;15572;48.810;9.148;2023-11-19T20:44:11;97984.34;;;10.64;100.00
28312;BME280;15572;48.810;9.148;2023-11-19T20:49:07;97966.47;;;10.70;100.00
28312;BME280;15572;48.810;9.148;2023-11-19T20:54:04;97948.13;;;10.65;100.00
28312;BME280;15572;48.810;9.148;2023-11-19T20:59:01;97961.91;;;10.77;100.00
28312;BME280;15572;48.810;9.148;2023-11-19T21:04:00;97968.38;;;10.82;100.00
28312;BME280;15572;48.810;9.148;2023-11-19T21:08:57;97970.84;;;10.71;100.00
28312;BME280;15572;48.810;9.148;2023-11-19T21:13:53;97949.78;;;10.66;100.00
28312;BME280;15572;48.810;9.148;2023-11-19T21:18:49;97953.81;;;10.90;100.00
28312;BME280;15572;48.810;9.148;2023-11-19T21:23:47;97951.56;;;10.93;100.00
28312;BME280;15572;48.810;9.148;2023-11-19T21:28:44;97959.69;;;10.93;100.00
28312;BME280;15572;48.810;9.148;2023-11-19T21:33:40;97959.06;;;10.98;100.00
28312;BME280;15572;48.810;9.148;2023-11-19T21:38:37;97954.69;;;11.04;100.00
28312;BME280;15572;48.810;9.148;2023-11-19T21:43:35;97950.34;;;11.22;100.00
28312;BME280;15572;48.810;9.148;2023-11-19T21:48:31;97967.06;;;11.32;100.00
28312;BME280;15572;48.810;9.148;2023-11-19T21:53:27;97965.38;;;11.25;100.00
28312;BME280;15572;48.810;9.148;2023-11-19T21:58:24;97948.03;;;11.13;100.00
28312;BME280;15572;48.810;9.148;2023-11-19T22:03:22;97943.25;;;11.15;100.00
28312;BME280;15572;48.810;9.148;2023-11-19T22:08:19;97951.19;;;11.16;100.00
28312;BME280;15572;48.810;9.148;2023-11-19T22:13:15;97949.94;;;11.25;98.15
28312;BME280;15572;48.810;9.148;2023-11-19T22:18:12;97935.75;;;11.17;98.76
28312;BME280;15572;48.810;9.148;2023-11-19T22:23:09;97950.97;;;11.18;96.69
28312;BME280;15572;48.810;9.148;2023-11-19T22:28:06;97955.78;;;11.16;96.20
28312;BME280;15572;48.810;9.148;2023-11-19T22:33:02;97969.72;;;11.13;95.11
28312;BME280;15572;48.810;9.148;2023-11-19T22:38:02;97966.59;;;11.09;95.66
28312;BME280;15572;48.810;9.148;2023-11-19T22:43:00;97967.19;;;11.11;95.10
28312;BME280;15572;48.810;9.148;2023-11-19T22:47:57;97958.22;;;10.97;96.95
28312;BME280;15572;48.810;9.148;2023-11-19T22:52:54;97972.38;;;10.93;96.40
28312;BME280;15572;48.810;9.148;2023-11-19T22:57:52;97971.97;;;10.96;95.13
28312;BME280;15572;48.810;9.148;2023-11-19T23:02:49;97961.94;;;10.90;96.16
28312;BME280;15572;48.810;9.148;2023-11-19T23:07:46;97971.53;;;10.92;94.49
28312;BME280;15572;48.810;9.148;2023-11-19T23:12:42;97969.06;;;10.97;91.90
28312;BME280;15572;48.810;9.148;2023-11-19T23:17:40;97954.28;;;11.07;88.75
28312;BME280;15572;48.810;9.148;2023-11-19T23:22:38;97940.56;;;11.21;84.97
28312;BME280;15572;48.810;9.148;2023-11-19T23:27:35;97949.50;;;11.22;84.47
28312;BME280;15572;48.810;9.148;2023-11-19T23:32:32;97956.19;;;11.19;83.37
28312;BME280;15572;48.810;9.148;2023-11-19T23:37:29;97951.59;;;11.20;82.27
28312;BME280;15572;48.810;9.148;2023-11-19T23:42:27;97953.47;;;11.19;82.62
28312;BME280;15572;48.810;9.148;2023-11-19T23:47:23;97958.91;;;11.19;82.60
28312;BME280;15572;48.810;9.148;2023-11-19T23:52:20;97968.03;;;11.12;83.06
28312;BME280;15572;48.810;9.148;2023-11-19T23:57:16;97963.66;;;11.17;82.88
